Time;durP1;ratioP1;P1;durP2;ratioP2;P2;SDS_P1;SDS_P2;PMS_P1;PMS_P2;Temp;Humidity;BMP_temperature;BMP_pressure;BME280_temperature;BME280_humidity;BME280_pressure;Samples;Min_cycle;Max_cycle;Signal;HPM_P1;HPM_P2
2022/01/02 00:02:09;;;;;;;3.00;2.30;;;;;;;;;;5044261;28;20071;-32
2022/01/02 00:04:35;;;;;;;3.53;2.60;;;;;;;;;;5043339;28;20039;-33
2022/01/02 00:07:02;;;;;;;3.10;2.50;;;;;;;;;;5044645;28;20020;-31
2022/01/02 00:09:35;;;;;;;2.90;2.30;;;;;;;;;;5043307;28;20057;-32
2022/01/02 00:12:11;;;;;;;2.65;2.25;;;;;;;;;;5044742;28;20021;-30
2022/01/02 00:14:38;;;;;;;2.90;2.17;;;;;;;;;;5044711;28;20033;-39
2022/01/02 00:17:05;;;;;;;2.78;2.17;;;;;;;;;;5044817;28;20021;-34
2022/01/02 00:19:32;;;;;;;2.95;2.50;;;;;;;;;;5043363;28;20032;-33
2022/01/02 00:22:03;;;;;;;2.78;2.40;;;;;;;;;;5043109;28;20033;-31
2022/01/02 00:24:29;;;;;;;2.70;2.10;;;;;;;;;;5044649;28;20024;-29
2022/01/02 00:26:56;;;;;;;2.92;2.30;;;;;;;;;;5044618;28;20545;-34
2022/01/02 00:29:21;;;;;;;2.92;2.13;;;;;;;;;;5027203;28;20108;-33
2022/01/02 00:31:47;;;;;;;2.80;2.50;;;;;;;;;;5022804;28;20060;-33
2022/01/02 00:34:13;;;;;;;3.00;2.05;;;;;;;;;;5023290;28;20416;-34
2022/01/02 00:36:38;;;;;;;2.42;2.22;;;;;;;;;;5029830;28;20059;-31
2022/01/02 00:39:04;;;;;;;2.80;2.35;;;;;;;;;;5044132;28;20032;-31
2022/01/02 00:41:52;;;;;;;2.50;1.95;;;;;;;;;;5036662;28;20038;-32
2022/01/02 00:44:28;;;;;;;2.95;2.40;;;;;;;;;;5024142;28;20029;-31
2022/01/02 00:47:23;;;;;;;3.55;2.40;;;;;;;;;;5022707;28;20040;-33
2022/01/02 00:50:20;;;;;;;3.03;2.20;;;;;;;;;;5021614;28;20156;-30
2022/01/02 00:52:47;;;;;;;3.60;2.63;;;;;;;;;;5023929;28;20063;-30
2022/01/02 00:55:21;;;;;;;2.45;2.10;;;;;;;;;;5024039;28;20112;-30
2022/01/02 00:57:55;;;;;;;2.53;2.10;;;;;;;;;;5024091;28;20100;-30
2022/01/02 01:00:20;;;;;;;2.70;2.10;;;;;;;;;;5023031;28;20025;-35
2022/01/02 01:02:48;;;;;;;2.25;2.05;;;;;;;;;;5023948;28;20376;-31
2022/01/02 01:05:18;;;;;;;2.47;2.08;;;;;;;;;;5023952;28;20025;-31
2022/01/02 01:07:44;;;;;;;4.03;2.42;;;;;;;;;;5022264;28;20037;-36
2022/01/02 01:10:11;;;;;;;2.83;2.28;;;;;;;;;;5022576;28;20056;-34
2022/01/02 01:12:36;;;;;;;2.20;2.00;;;;;;;;;;5023404;28;20048;-33
2022/01/02 01:15:02;;;;;;;2.97;2.20;;;;;;;;;;5023807;28;20057;-30
2022/01/02 01:17:28;;;;;;;2.97;2.28;;;;;;;;;;5023394;28;20076;-35
2022/01/02 01:19:53;;;;;;;2.72;1.98;;;;;;;;;;5021907;28;20504;-30
2022/01/02 01:22:20;;;;;;;2.90;2.08;;;;;;;;;;5023616;28;20468;-34
2022/01/02 01:24:45;;;;;;;2.42;2.17;;;;;;;;;;5023905;28;20041;-35
2022/01/02 01:27:11;;;;;;;2.10;1.90;;;;;;;;;;5023862;28;20041;-32
2022/01/02 01:29:37;;;;;;;2.65;2.13;;;;;;;;;;5021812;28;20488;-33
2022/01/02 01:32:06;;;;;;;2.17;1.90;;;;;;;;;;5023241;28;20037;-32
2022/01/02 01:34:32;;;;;;;2.92;2.20;;;;;;;;;;5023380;28;20044;-31
2022/01/02 01:36:58;;;;;;;2.42;2.05;;;;;;;;;;5023666;28;20029;-34
2022/01/02 01:39:23;;;;;;;2.90;2.10;;;;;;;;;;5023653;28;20487;-29
2022/01/02 01:41:50;;;;;;;2.42;2.08;;;;;;;;;;5033996;28;20514;-32
2022/01/02 01:47:01;;;;;;;2.78;2.00;;;;;;;;;;5041453;28;20072;-31
2022/01/02 01:49:29;;;;;;;2.30;1.98;;;;;;;;;;5043197;28;20110;-32
2022/01/02 01:51:54;;;;;;;2.78;2.10;;;;;;;;;;5043289;28;20029;-32
2022/01/02 01:54:20;;;;;;;2.40;2.10;;;;;;;;;;5043032;28;20029;-30
2022/01/02 01:56:46;;;;;;;3.13;2.22;;;;;;;;;;5042763;28;20071;-30
2022/01/02 01:59:12;;;;;;;2.08;1.75;;;;;;;;;;5043224;28;20020;-33
2022/01/02 02:01:37;;;;;;;2.88;2.10;;;;;;;;;;5042934;28;20396;-30
2022/01/02 02:04:03;;;;;;;2.42;1.88;;;;;;;;;;5042253;28;20098;-31
2022/01/02 02:06:28;;;;;;;2.70;2.00;;;;;;;;;;5043033;28;20116;-31
2022/01/02 02:08:56;;;;;;;2.45;2.08;;;;;;;;;;5042477;28;20451;-32
2022/01/02 02:11:22;;;;;;;2.10;1.90;;;;;;;;;;5042517;28;20070;-33
2022/01/02 02:13:48;;;;;;;2.50;2.00;;;;;;;;;;5041201;28;20124;-32
2022/01/02 02:16:13;;;;;;;2.88;2.20;;;;;;;;;;5025037;28;20059;-33
2022/01/02 02:18:39;;;;;;;2.75;2.10;;;;;;;;;;5041533;28;20506;-33
2022/01/02 02:21:04;;;;;;;2.25;1.77;;;;;;;;;;5042658;28;20085;-33
2022/01/02 02:23:30;;;;;;;2.50;2.00;;;;;;;;;;5042709;28;20036;-34
2022/01/02 02:25:55;;;;;;;2.13;1.88;;;;;;;;;;5042533;28;20120;-32
2022/01/02 02:28:26;;;;;;;2.53;2.03;;;;;;;;;;5042730;28;20060;-33
2022/01/02 02:30:52;;;;;;;2.53;1.80;;;;;;;;;;5042508;28;20522;-29
2022/01/02 02:33:17;;;;;;;3.20;2.10;;;;;;;;;;5042822;28;20036;-28
2022/01/02 02:35:44;;;;;;;2.10;1.90;;;;;;;;;;5042198;28;20511;-35
2022/01/02 02:38:10;;;;;;;2.13;1.90;;;;;;;;;;5042417;28;20021;-30
2022/01/02 02:40:36;;;;;;;2.20;2.00;;;;;;;;;;5041576;28;20033;-30
2022/01/02 02:43:04;;;;;;;1.90;1.70;;;;;;;;;;5042570;28;20029;-32
2022/01/02 02:51:03;;;;;;;2.60;1.85;;;;;;;;;;5042825;28;20044;-34
2022/01/02 02:53:29;;;;;;;2.00;1.80;;;;;;;;;;5042908;28;20111;-32
2022/01/02 02:55:57;;;;;;;3.00;2.20;;;;;;;;;;5042186;28;20082;-33
2022/01/02 03:01:01;;;;;;;2.25;1.85;;;;;;;;;;5040973;28;20598;-30
2022/01/02 03:03:26;;;;;;;2.10;1.83;;;;;;;;;;5041255;28;20037;-32
2022/01/02 03:05:52;;;;;;;2.22;1.70;;;;;;;;;;5042326;28;20036;-32
2022/01/02 03:08:17;;;;;;;2.30;1.85;;;;;;;;;;5040598;28;20053;-30
2022/01/02 03:10:43;;;;;;;2.28;1.92;;;;;;;;;;5042192;28;20036;-30
2022/01/02 03:13:08;;;;;;;2.20;1.70;;;;;;;;;;5042213;28;20033;-30
2022/01/02 03:15:34;;;;;;;2.53;2.00;;;;;;;;;;5043369;28;20044;-32
2022/01/02 03:17:59;;;;;;;2.25;1.80;;;;;;;;;;5045765;28;20600;-32
2022/01/02 03:20:25;;;;;;;2.38;1.98;;;;;;;;;;5026462;28;20041;-34
2022/01/02 03:22:50;;;;;;;2.17;1.80;;;;;;;;;;5024448;28;20041;-29
2022/01/02 03:25:17;;;;;;;1.83;1.60;;;;;;;;;;5025867;28;20108;-31
2022/01/02 03:27:42;;;;;;;1.80;1.60;;;;;;;;;;5025760;28;20036;-32
2022/01/02 03:30:08;;;;;;;2.00;1.80;;;;;;;;;;5026071;28;20034;-31
2022/01/02 03:32:34;;;;;;;2.20;1.77;;;;;;;;;;5026059;28;20033;-35
2022/01/02 03:34:59;;;;;;;1.98;1.65;;;;;;;;;;5025642;28;20522;-33
2022/01/02 03:37:28;;;;;;;2.03;1.83;;;;;;;;;;5025575;28;20492;-35
2022/01/02 03:39:54;;;;;;;2.45;2.05;;;;;;;;;;5025833;28;20072;-31
2022/01/02 03:42:20;;;;;;;2.15;1.60;;;;;;;;;;5039740;28;20652;-30
2022/01/02 03:44:45;;;;;;;2.13;1.92;;;;;;;;;;5025784;28;20053;-33
2022/01/02 03:47:11;;;;;;;1.77;1.63;;;;;;;;;;5025815;28;20072;-30
2022/01/02 03:49:36;;;;;;;2.00;1.70;;;;;;;;;;5025555;28;20033;-33
2022/01/02 03:52:02;;;;;;;2.28;2.00;;;;;;;;;;5025206;28;20079;-32
2022/01/02 03:54:28;;;;;;;2.00;1.63;;;;;;;;;;5025198;28;20523;-30
2022/01/02 03:56:54;;;;;;;2.53;2.08;;;;;;;;;;5025342;28;20025;-32
2022/01/02 03:59:20;;;;;;;2.00;1.70;;;;;;;;;;5025444;28;20565;-32
2022/01/02 04:01:45;;;;;;;1.70;1.60;;;;;;;;;;5025158;28;20037;-29
2022/01/02 04:04:11;;;;;;;1.88;1.58;;;;;;;;;;5042137;28;20395;-31
2022/01/02 04:06:36;;;;;;;1.83;1.63;;;;;;;;;;5045164;28;20442;-32
2022/01/02 04:09:04;;;;;;;1.92;1.73;;;;;;;;;;5044927;28;20062;-32
2022/01/02 04:11:30;;;;;;;2.10;1.60;;;;;;;;;;5045213;28;20118;-29
2022/01/02 04:13:55;;;;;;;1.50;1.40;;;;;;;;;;5044935;28;20675;-31
2022/01/02 04:16:21;;;;;;;1.75;1.50;;;;;;;;;;5045074;28;20065;-36
2022/01/02 04:18:46;;;;;;;1.95;1.75;;;;;;;;;;5044956;28;20021;-30
2022/01/02 04:21:12;;;;;;;2.10;1.50;;;;;;;;;;5044744;28;20033;-32
2022/01/02 04:23:38;;;;;;;2.05;1.65;;;;;;;;;;5044663;28;20087;-32
2022/01/02 04:26:04;;;;;;;1.70;1.42;;;;;;;;;;5044570;28;20071;-31
2022/01/02 04:28:30;;;;;;;1.70;1.48;;;;;;;;;;5044256;28;20028;-32
2022/01/02 04:30:55;;;;;;;1.67;1.50;;;;;;;;;;5044283;28;20465;-33
2022/01/02 04:33:21;;;;;;;1.98;1.52;;;;;;;;;;5043769;28;20025;-33
2022/01/02 04:35:46;;;;;;;1.70;1.55;;;;;;;;;;5043885;28;20040;-34
2022/01/02 04:38:13;;;;;;;2.05;1.75;;;;;;;;;;5044059;28;20040;-33
2022/01/02 04:40:39;;;;;;;1.95;1.60;;;;;;;;;;5038522;28;20034;-34
2022/01/02 04:43:05;;;;;;;1.92;1.70;;;;;;;;;;5024706;28;20050;-35
2022/01/02 04:45:30;;;;;;;2.58;1.65;;;;;;;;;;5024689;28;20083;-31
2022/01/02 04:47:56;;;;;;;1.90;1.52;;;;;;;;;;5024435;28;20087;-29
2022/01/02 04:50:22;;;;;;;1.88;1.55;;;;;;;;;;5023335;28;20626;-31
2022/01/02 04:52:47;;;;;;;1.70;1.42;;;;;;;;;;5024435;28;20037;-33
2022/01/02 04:55:13;;;;;;;1.50;1.40;;;;;;;;;;5024404;28;20471;-32
2022/01/02 04:57:38;;;;;;;1.70;1.60;;;;;;;;;;5024228;28;20296;-33
2022/01/02 05:00:05;;;;;;;1.65;1.40;;;;;;;;;;5024230;28;20056;-32
2022/01/02 05:02:31;;;;;;;1.75;1.55;;;;;;;;;;5024308;28;20036;-32
2022/01/02 05:04:56;;;;;;;2.40;1.65;;;;;;;;;;5024266;28;20431;-28
2022/01/02 05:07:22;;;;;;;2.08;1.83;;;;;;;;;;5023901;28;20503;-32
2022/01/02 05:09:47;;;;;;;1.90;1.67;;;;;;;;;;5023790;28;20044;-35
2022/01/02 05:12:13;;;;;;;1.67;1.30;;;;;;;;;;5022441;28;20030;-33
2022/01/02 05:14:38;;;;;;;1.83;1.50;;;;;;;;;;5023675;28;20045;-32
2022/01/02 05:17:04;;;;;;;1.70;1.50;;;;;;;;;;5023987;28;20067;-34
2022/01/02 05:19:30;;;;;;;1.85;1.65;;;;;;;;;;5024138;28;20068;-31
2022/01/02 05:21:55;;;;;;;1.90;1.60;;;;;;;;;;5023591;28;20033;-34
2022/01/02 05:24:21;;;;;;;1.50;1.40;;;;;;;;;;5023710;28;20026;-32
2022/01/02 05:26:46;;;;;;;1.80;1.50;;;;;;;;;;5024096;28;20025;-30
2022/01/02 05:29:12;;;;;;;2.20;1.98;;;;;;;;;;5023935;28;20380;-29
2022/01/02 05:31:37;;;;;;;1.67;1.58;;;;;;;;;;5023647;28;20025;-29
2022/01/02 05:34:03;;;;;;;1.85;1.60;;;;;;;;;;5023481;28;20025;-37
2022/01/02 05:36:28;;;;;;;1.80;1.60;;;;;;;;;;5023756;28;20030;-31
2022/01/02 05:38:54;;;;;;;1.85;1.48;;;;;;;;;;5022764;28;20056;-32
2022/01/02 05:41:19;;;;;;;1.55;1.45;;;;;;;;;;5024337;28;20045;-32
2022/01/02 05:43:45;;;;;;;2.10;1.60;;;;;;;;;;5023016;28;20459;-37
2022/01/02 05:46:11;;;;;;;2.10;1.70;;;;;;;;;;5023476;28;20029;-35
2022/01/02 05:48:36;;;;;;;2.03;1.70;;;;;;;;;;5023201;28;20030;-32
2022/01/02 05:51:02;;;;;;;1.60;1.50;;;;;;;;;;5023240;28;20029;-35
2022/01/02 05:53:30;;;;;;;1.92;1.73;;;;;;;;;;5023355;28;20519;-29
2022/01/02 05:55:56;;;;;;;1.63;1.42;;;;;;;;;;5021672;28;20025;-32
2022/01/02 05:58:22;;;;;;;2.22;1.70;;;;;;;;;;5023282;28;20681;-33
2022/01/02 06:00:47;;;;;;;1.88;1.52;;;;;;;;;;5023310;28;20033;-34
2022/01/02 06:03:13;;;;;;;2.45;1.65;;;;;;;;;;5021937;28;20033;-30
2022/01/02 06:05:38;;;;;;;1.58;1.40;;;;;;;;;;5022935;28;20029;-33
2022/01/02 06:08:04;;;;;;;1.75;1.58;;;;;;;;;;5023132;28;20053;-33
2022/01/02 06:10:30;;;;;;;1.90;1.50;;;;;;;;;;5022780;28;20421;-34
2022/01/02 06:12:55;;;;;;;2.15;1.58;;;;;;;;;;5022826;28;20053;-30
2022/01/02 06:15:20;;;;;;;2.08;1.60;;;;;;;;;;5023433;28;20029;-31
2022/01/02 06:17:46;;;;;;;1.88;1.50;;;;;;;;;;5023146;28;20029;-29
2022/01/02 06:20:11;;;;;;;1.88;1.45;;;;;;;;;;5022738;28;20051;-34
2022/01/02 06:22:37;;;;;;;1.52;1.40;;;;;;;;;;5023114;28;20076;-29
2022/01/02 06:25:03;;;;;;;1.70;1.50;;;;;;;;;;5022610;28;20056;-32
2022/01/02 06:27:29;;;;;;;1.50;1.40;;;;;;;;;;5028185;28;20029;-29
2022/01/02 06:29:54;;;;;;;1.85;1.55;;;;;;;;;;5042841;28;20025;-32
2022/01/02 06:32:19;;;;;;;1.83;1.45;;;;;;;;;;5042712;28;20058;-30
2022/01/02 06:34:46;;;;;;;2.15;1.50;;;;;;;;;;5042284;28;20029;-31
2022/01/02 06:37:12;;;;;;;1.98;1.50;;;;;;;;;;5042731;28;20033;-32
2022/01/02 06:39:37;;;;;;;1.73;1.58;;;;;;;;;;5042822;28;20059;-30
2022/01/02 06:42:03;;;;;;;1.45;1.30;;;;;;;;;;5024645;28;20069;-34
2022/01/02 06:44:29;;;;;;;2.40;1.60;;;;;;;;;;5023177;28;20037;-32
2022/01/02 06:46:54;;;;;;;1.63;1.50;;;;;;;;;;5023115;28;20042;-34
2022/01/02 06:49:20;;;;;;;2.42;1.60;;;;;;;;;;5022993;28;20098;-31
2022/01/02 06:51:45;;;;;;;2.33;1.73;;;;;;;;;;5025082;28;20860;-31
2022/01/02 06:54:11;;;;;;;1.40;1.30;;;;;;;;;;5026553;28;20040;-32
2022/01/02 06:56:36;;;;;;;1.60;1.45;;;;;;;;;;5026804;28;20088;-31
2022/01/02 06:59:02;;;;;;;1.92;1.70;;;;;;;;;;5026318;28;20423;-30
2022/01/02 07:01:27;;;;;;;2.00;1.55;;;;;;;;;;5026639;28;20041;-37
2022/01/02 07:03:53;;;;;;;1.85;1.42;;;;;;;;;;5026346;28;20037;-34
2022/01/02 07:06:18;;;;;;;1.58;1.40;;;;;;;;;;5026645;28;20420;-32
2022/01/02 07:08:44;;;;;;;1.98;1.42;;;;;;;;;;5025903;28;20045;-34
2022/01/02 07:11:11;;;;;;;1.92;1.67;;;;;;;;;;5026130;28;20026;-34
2022/01/02 07:13:40;;;;;;;1.92;1.50;;;;;;;;;;5026422;28;20053;-36
2022/01/02 07:16:06;;;;;;;1.65;1.50;;;;;;;;;;5026343;28;20033;-31
2022/01/02 07:18:31;;;;;;;1.83;1.52;;;;;;;;;;5026271;28;20030;-31
2022/01/02 07:20:57;;;;;;;1.77;1.65;;;;;;;;;;5026368;28;20033;-30
2022/01/02 07:23:22;;;;;;;2.33;1.83;;;;;;;;;;5025943;28;20029;-35
2022/01/02 07:25:48;;;;;;;1.85;1.58;;;;;;;;;;5025628;28;20037;-29
2022/01/02 07:28:14;;;;;;;1.83;1.50;;;;;;;;;;5026155;28;20038;-29
2022/01/02 07:30:39;;;;;;;3.45;1.40;;;;;;;;;;5025984;28;20035;-34
2022/01/02 07:33:05;;;;;;;1.88;1.58;;;;;;;;;;5026148;28;20120;-30
2022/01/02 07:35:31;;;;;;;1.92;1.45;;;;;;;;;;5025857;28;20033;-30
2022/01/02 07:37:57;;;;;;;1.95;1.67;;;;;;;;;;5025608;28;20026;-32
2022/01/02 07:40:23;;;;;;;2.10;1.50;;;;;;;;;;5030234;28;20479;-30
2022/01/02 07:42:49;;;;;;;1.50;1.40;;;;;;;;;;5045771;28;20032;-32
2022/01/02 07:45:14;;;;;;;2.20;1.60;;;;;;;;;;5046031;28;20616;-35
2022/01/02 07:47:40;;;;;;;1.83;1.60;;;;;;;;;;5045686;28;20530;-31
2022/01/02 07:50:06;;;;;;;1.52;1.42;;;;;;;;;;5046012;28;20044;-31
2022/01/02 07:52:32;;;;;;;2.63;1.85;;;;;;;;;;5045629;28;20033;-32
2022/01/02 07:54:57;;;;;;;1.30;1.15;;;;;;;;;;5045139;28;20029;-30
2022/01/02 07:57:23;;;;;;;1.70;1.60;;;;;;;;;;5045760;28;20502;-31
2022/01/02 07:59:48;;;;;;;1.65;1.35;;;;;;;;;;5045253;28;20067;-31
2022/01/02 08:02:14;;;;;;;1.67;1.30;;;;;;;;;;5044493;28;20342;-31
2022/01/02 08:04:40;;;;;;;1.63;1.40;;;;;;;;;;5045105;28;20048;-32
2022/01/02 08:07:05;;;;;;;1.88;1.45;;;;;;;;;;5045249;28;20060;-29
2022/01/02 08:09:31;;;;;;;1.70;1.45;;;;;;;;;;5044762;28;20530;-29
2022/01/02 08:11:56;;;;;;;1.73;1.30;;;;;;;;;;5044808;28;20041;-30
2022/01/02 08:14:22;;;;;;;1.90;1.40;;;;;;;;;;5045386;28;20033;-30
2022/01/02 08:16:48;;;;;;;1.60;1.50;;;;;;;;;;5045044;28;20033;-30
2022/01/02 08:19:13;;;;;;;1.73;1.63;;;;;;;;;;5045162;28;20040;-32
2022/01/02 08:21:42;;;;;;;1.67;1.40;;;;;;;;;;5044607;28;20419;-30
2022/01/02 08:24:08;;;;;;;2.03;1.60;;;;;;;;;;5044941;28;20384;-36
2022/01/02 08:26:33;;;;;;;1.75;1.55;;;;;;;;;;5045008;28;20040;-30
2022/01/02 08:29:02;;;;;;;1.60;1.50;;;;;;;;;;5044900;28;20029;-37
2022/01/02 08:31:28;;;;;;;1.77;1.63;;;;;;;;;;5044613;28;20045;-31
2022/01/02 08:33:54;;;;;;;1.95;1.60;;;;;;;;;;5044551;28;20024;-36
2022/01/02 08:36:20;;;;;;;2.10;1.80;;;;;;;;;;5044541;28;20056;-31
2022/01/02 08:38:47;;;;;;;1.80;1.58;;;;;;;;;;5029646;28;20469;-37
2022/01/02 08:41:13;;;;;;;2.40;1.70;;;;;;;;;;5025490;28;20512;-34
2022/01/02 08:43:39;;;;;;;1.80;1.50;;;;;;;;;;5024264;28;20136;-31
2022/01/02 08:46:04;;;;;;;1.67;1.58;;;;;;;;;;5024814;28;20033;-33
2022/01/02 08:48:30;;;;;;;1.98;1.77;;;;;;;;;;5024622;28;20437;-32
2022/01/02 08:50:55;;;;;;;1.60;1.42;;;;;;;;;;5024541;28;20036;-33
2022/01/02 08:53:21;;;;;;;1.90;1.73;;;;;;;;;;5024336;28;20404;-34
2022/01/02 08:55:46;;;;;;;1.83;1.63;;;;;;;;;;5024082;28;20041;-36
2022/01/02 08:58:12;;;;;;;1.65;1.50;;;;;;;;;;5024424;28;20032;-31
2022/01/02 09:00:38;;;;;;;2.67;1.75;;;;;;;;;;5024590;28;20033;-35
2022/01/02 09:03:03;;;;;;;2.10;1.70;;;;;;;;;;5024383;28;20022;-34
2022/01/02 09:05:29;;;;;;;1.90;1.60;;;;;;;;;;5024286;28;20435;-33
2022/01/02 09:07:55;;;;;;;1.77;1.60;;;;;;;;;;5023947;28;20580;-32
2022/01/02 09:10:21;;;;;;;2.33;1.90;;;;;;;;;;5024234;28;20136;-36
2022/01/02 09:12:47;;;;;;;2.20;1.75;;;;;;;;;;5023878;28;20116;-30
2022/01/02 09:15:12;;;;;;;1.60;1.50;;;;;;;;;;5023985;28;20124;-35
2022/01/02 09:17:38;;;;;;;2.22;1.92;;;;;;;;;;5024196;28;20025;-31
2022/01/02 09:20:07;;;;;;;2.40;1.70;;;;;;;;;;5022520;28;20614;-36
2022/01/02 09:22:33;;;;;;;1.50;1.40;;;;;;;;;;5023920;28;20397;-35
2022/01/02 09:24:58;;;;;;;1.73;1.58;;;;;;;;;;5023870;28;20040;-32
2022/01/02 09:27:24;;;;;;;1.70;1.58;;;;;;;;;;5023882;28;20044;-33
2022/01/02 09:29:49;;;;;;;1.95;1.65;;;;;;;;;;5023962;28;20041;-37
2022/01/02 09:32:15;;;;;;;2.05;1.50;;;;;;;;;;5023759;28;20037;-34
2022/01/02 09:34:40;;;;;;;1.40;1.30;;;;;;;;;;5023646;28;20815;-33
2022/01/02 09:37:06;;;;;;;1.60;1.40;;;;;;;;;;5023784;28;20032;-35
2022/01/02 09:39:31;;;;;;;1.60;1.50;;;;;;;;;;5023574;28;20065;-31
2022/01/02 09:41:57;;;;;;;1.83;1.60;;;;;;;;;;5024412;28;20029;-36
2022/01/02 09:44:22;;;;;;;1.60;1.45;;;;;;;;;;5023555;28;20033;-33
2022/01/02 09:46:50;;;;;;;1.70;1.50;;;;;;;;;;5023455;28;20040;-31
2022/01/02 09:49:16;;;;;;;1.83;1.50;;;;;;;;;;5005918;28;20144;-31
2022/01/02 09:51:41;;;;;;;1.83;1.60;;;;;;;;;;5023311;28;20036;-33
2022/01/02 09:54:09;;;;;;;1.40;1.30;;;;;;;;;;5023609;28;20037;-36
2022/01/02 09:56:34;;;;;;;1.70;1.40;;;;;;;;;;5023591;28;20037;-36
2022/01/02 09:59:02;;;;;;;1.52;1.42;;;;;;;;;;5023088;28;20037;-35
2022/01/02 10:01:27;;;;;;;1.40;1.30;;;;;;;;;;5023357;28;20514;-32
2022/01/02 10:03:54;;;;;;;1.58;1.48;;;;;;;;;;5043007;28;20032;-35
2022/01/02 10:06:20;;;;;;;1.50;1.40;;;;;;;;;;5043483;28;20049;-34
2022/01/02 10:08:49;;;;;;;1.55;1.45;;;;;;;;;;5024661;28;20064;-30
2022/01/02 10:11:22;;;;;;;1.70;1.50;;;;;;;;;;5043251;28;20029;-30
2022/01/02 10:13:51;;;;;;;2.33;1.50;;;;;;;;;;5042787;28;20641;-31
2022/01/02 10:16:37;;;;;;;1.75;1.40;;;;;;;;;;5041501;28;20059;-34
2022/01/02 10:19:26;;;;;;;1.80;1.27;;;;;;;;;;5042892;28;20574;-37
2022/01/02 10:21:58;;;;;;;1.40;1.30;;;;;;;;;;5042964;28;20036;-31
2022/01/02 10:24:26;;;;;;;1.45;1.35;;;;;;;;;;5042813;28;20036;-34
2022/01/02 10:27:11;;;;;;;1.73;1.63;;;;;;;;;;5042314;28;20032;-33
2022/01/02 10:29:56;;;;;;;1.50;1.40;;;;;;;;;;5042802;28;20025;-33
2022/01/02 10:32:34;;;;;;;1.70;1.42;;;;;;;;;;5042790;28;20033;-32
2022/01/02 10:35:21;;;;;;;1.60;1.50;;;;;;;;;;5042867;28;20495;-28
2022/01/02 10:37:53;;;;;;;1.52;1.42;;;;;;;;;;5042531;28;20048;-33
2022/01/02 10:40:24;;;;;;;1.73;1.60;;;;;;;;;;5037066;28;20030;-34
2022/01/02 10:42:50;;;;;;;1.90;1.70;;;;;;;;;;5023003;28;20334;-29
2022/01/02 10:45:35;;;;;;;1.42;1.33;;;;;;;;;;5037844;28;20049;-32
2022/01/02 10:48:01;;;;;;;1.67;1.58;;;;;;;;;;5022865;28;20041;-32
2022/01/02 10:50:26;;;;;;;1.70;1.40;;;;;;;;;;5022836;28;20503;-34
2022/01/02 10:52:52;;;;;;;1.40;1.30;;;;;;;;;;5024563;28;20040;-33
2022/01/02 10:55:25;;;;;;;1.77;1.58;;;;;;;;;;5042844;28;20051;-31
2022/01/02 10:57:54;;;;;;;1.70;1.60;;;;;;;;;;5042585;28;20029;-32
2022/01/02 11:00:22;;;;;;;1.70;1.40;;;;;;;;;;5042597;28;20036;-33
2022/01/02 11:02:48;;;;;;;2.00;1.63;;;;;;;;;;5042588;28;20407;-36
2022/01/02 11:05:15;;;;;;;1.48;1.38;;;;;;;;;;5042596;28;20061;-33
2022/01/02 11:07:51;;;;;;;1.70;1.50;;;;;;;;;;5042235;28;20033;-31
2022/01/02 11:10:23;;;;;;;1.60;1.50;;;;;;;;;;5042484;28;20029;-32
2022/01/02 11:12:49;;;;;;;1.70;1.50;;;;;;;;;;5042038;28;20591;-29
2022/01/02 11:15:21;;;;;;;1.88;1.60;;;;;;;;;;5042568;28;20029;-31
2022/01/02 11:17:47;;;;;;;2.40;1.90;;;;;;;;;;5041922;28;20747;-31
2022/01/02 11:20:16;;;;;;;2.00;1.80;;;;;;;;;;5042822;28;20605;-35
2022/01/02 11:23:05;;;;;;;2.20;2.00;;;;;;;;;;5023139;28;20209;-33
2022/01/02 11:25:40;;;;;;;1.98;1.75;;;;;;;;;;5023004;28;20121;-31
2022/01/02 11:28:42;;;;;;;1.90;1.55;;;;;;;;;;5021351;28;20033;-32
2022/01/02 11:31:09;;;;;;;1.90;1.60;;;;;;;;;;4979857;28;20652;-34
2022/01/02 11:33:39;;;;;;;2.28;1.60;;;;;;;;;;5013486;28;20030;-29
2022/01/02 11:36:24;;;;;;;2.35;1.90;;;;;;;;;;5022442;28;20029;-33
2022/01/02 11:39:01;;;;;;;2.42;1.85;;;;;;;;;;5040125;28;20508;-34
2022/01/02 11:41:49;;;;;;;1.70;1.50;;;;;;;;;;5036148;28;20029;-32
2022/01/02 11:44:19;;;;;;;1.60;1.50;;;;;;;;;;5045714;28;20577;-31
2022/01/02 11:46:52;;;;;;;1.85;1.70;;;;;;;;;;5044292;28;20029;-33
2022/01/02 11:49:18;;;;;;;;;;;;;;;;;;5046023;28;20083;-30
2022/01/02 11:52:08;;;;;;;2.17;1.98;;;;;;;;;;5045179;28;19923;-32
2022/01/02 11:54:43;;;;;;;2.10;1.90;;;;;;;;;;5045648;28;20025;-36
2022/01/02 11:57:11;;;;;;;2.40;2.20;;;;;;;;;;5046076;28;20517;-36
2022/01/02 11:59:40;;;;;;;1.88;1.73;;;;;;;;;;5045308;28;20222;-37
2022/01/02 12:02:35;;;;;;;1.52;1.42;;;;;;;;;;5045679;28;20041;-29
2022/01/02 12:05:02;;;;;;;2.13;1.70;;;;;;;;;;5045074;28;20102;-34
2022/01/02 12:07:54;;;;;;;2.25;1.88;;;;;;;;;;5045364;28;20033;-35
2022/01/02 12:10:20;;;;;;;2.40;1.90;;;;;;;;;;5045476;28;20029;-31
2022/01/02 12:13:16;;;;;;;2.03;1.83;;;;;;;;;;5045112;28;20871;-33
2022/01/02 12:15:41;;;;;;;1.98;1.80;;;;;;;;;;5045012;28;20041;-32
2022/01/02 12:18:29;;;;;;;2.17;1.70;;;;;;;;;;5045353;28;20039;-31
2022/01/02 12:21:00;;;;;;;2.13;1.90;;;;;;;;;;5045014;28;20678;-33
2022/01/02 12:23:31;;;;;;;2.40;2.05;;;;;;;;;;5045276;28;20032;-28
2022/01/02 12:26:07;;;;;;;2.67;2.10;;;;;;;;;;5044997;28;20087;-30
2022/01/02 12:29:05;;;;;;;2.03;1.83;;;;;;;;;;5044964;28;20021;-28
2022/01/02 12:31:41;;;;;;;2.35;2.00;;;;;;;;;;5030268;28;20045;-35
2022/01/02 12:34:10;;;;;;;1.95;1.75;;;;;;;;;;5044808;28;20029;-33
2022/01/02 12:36:36;;;;;;;2.53;2.10;;;;;;;;;;5044612;28;20052;-33
2022/01/02 12:39:06;;;;;;;1.90;1.75;;;;;;;;;;5044483;28;20036;-32
2022/01/02 12:41:33;;;;;;;2.28;1.63;;;;;;;;;;5027633;28;20034;-31
2022/01/02 12:44:01;;;;;;;2.28;2.08;;;;;;;;;;5024703;28;20113;-30
2022/01/02 12:46:47;;;;;;;2.03;1.65;;;;;;;;;;5025048;28;20030;-31
2022/01/02 12:49:23;;;;;;;2.20;2.00;;;;;;;;;;5024231;28;20033;-31
2022/01/02 12:51:50;;;;;;;2.58;2.10;;;;;;;;;;5024627;28;20052;-31
2022/01/02 12:54:19;;;;;;;2.60;2.05;;;;;;;;;;5024827;28;20532;-29
2022/01/02 12:56:56;;;;;;;2.13;1.90;;;;;;;;;;5024519;28;20064;-36
2022/01/02 12:59:32;;;;;;;2.40;2.05;;;;;;;;;;5024427;28;20466;-34
2022/01/02 13:02:05;;;;;;;2.55;2.10;;;;;;;;;;5024102;28;20107;-31
2022/01/02 13:04:30;;;;;;;;;;;;;;;;;;5024954;28;20025;-33
2022/01/02 13:07:00;;;;;;;2.22;2.00;;;;;;;;;;5024358;28;19928;-34
2022/01/02 13:09:30;;;;;;;2.15;1.92;;;;;;;;;;5024072;28;20089;-31
2022/01/02 13:11:56;;;;;;;2.28;1.80;;;;;;;;;;5023793;28;20037;-34
2022/01/02 13:14:41;;;;;;;2.50;1.98;;;;;;;;;;5024028;28;20047;-33
2022/01/02 13:17:09;;;;;;;2.40;1.98;;;;;;;;;;5024073;28;20029;-32
2022/01/02 13:19:36;;;;;;;2.53;2.00;;;;;;;;;;5022700;28;20084;-32
2022/01/02 13:22:02;;;;;;;2.53;1.92;;;;;;;;;;5022382;28;20026;-33
2022/01/02 13:24:28;;;;;;;2.40;2.10;;;;;;;;;;5024032;28;20092;-35
2022/01/02 13:26:55;;;;;;;2.75;2.20;;;;;;;;;;5023621;28;20541;-32
2022/01/02 13:29:26;;;;;;;2.83;2.10;;;;;;;;;;5023715;28;20041;-32
2022/01/02 13:31:52;;;;;;;2.50;2.03;;;;;;;;;;5023752;28;20033;-35
2022/01/02 13:34:28;;;;;;;2.78;2.20;;;;;;;;;;5024335;28;20036;-33
2022/01/02 13:36:58;;;;;;;2.45;1.90;;;;;;;;;;5023557;28;20047;-33
2022/01/02 13:39:52;;;;;;;2.85;2.22;;;;;;;;;;5023794;28;20041;-33
2022/01/02 13:42:18;;;;;;;2.72;2.08;;;;;;;;;;5010274;28;20046;-33
2022/01/02 13:44:48;;;;;;;2.63;2.05;;;;;;;;;;5023182;28;20021;-36
2022/01/02 13:47:13;;;;;;;2.63;1.90;;;;;;;;;;5023434;28;20025;-31
2022/01/02 13:49:42;;;;;;;2.60;2.20;;;;;;;;;;5023502;28;20132;-32
2022/01/02 13:52:07;;;;;;;2.70;2.10;;;;;;;;;;5023423;28;20045;-32
2022/01/02 13:54:33;;;;;;;2.33;2.00;;;;;;;;;;5023109;28;20582;-32
2022/01/02 13:56:58;;;;;;;3.15;2.38;;;;;;;;;;5023602;28;20057;-32
2022/01/02 13:59:25;;;;;;;2.13;1.70;;;;;;;;;;5023803;28;20061;-34
2022/01/02 14:01:50;;;;;;;2.90;2.20;;;;;;;;;;5036101;28;20399;-37
2022/01/02 14:04:17;;;;;;;2.58;1.85;;;;;;;;;;5043508;28;20471;-35
2022/01/02 14:06:42;;;;;;;2.80;2.08;;;;;;;;;;5043177;28;20060;-33
2022/01/02 14:09:09;;;;;;;2.83;2.25;;;;;;;;;;5042602;28;20071;-32
2022/01/02 14:11:35;;;;;;;2.45;1.95;;;;;;;;;;5042969;28;20487;-31
2022/01/02 14:17:14;;;;;;;2.40;2.10;;;;;;;;;;5019412;28;20052;-35
2022/01/02 14:19:47;;;;;;;2.67;2.10;;;;;;;;;;5041405;28;20685;-31
2022/01/02 14:22:18;;;;;;;3.17;2.30;;;;;;;;;;5043100;28;20066;-32
2022/01/02 14:24:44;;;;;;;2.88;2.00;;;;;;;;;;5042715;28;20028;-33
2022/01/02 14:27:17;;;;;;;2.95;2.40;;;;;;;;;;5043335;28;20078;-32
2022/01/02 14:29:42;;;;;;;;;;;;;;;;;;5043636;28;20079;-29
2022/01/02 14:32:08;;;;;;;3.10;2.40;;;;;;;;;;5042381;28;19916;-34
2022/01/02 14:34:35;;;;;;;3.15;2.17;;;;;;;;;;5043070;28;20028;-31
2022/01/02 14:37:01;;;;;;;2.92;2.28;;;;;;;;;;5042891;28;20563;-30
2022/01/02 14:39:27;;;;;;;3.10;2.28;;;;;;;;;;5042091;28;20064;-30
2022/01/02 14:41:52;;;;;;;2.80;2.10;;;;;;;;;;5022812;28;20124;-30
2022/01/02 14:44:18;;;;;;;3.67;2.03;;;;;;;;;;5022853;28;20124;-31
2022/01/02 14:46:45;;;;;;;7.53;2.25;;;;;;;;;;5022556;28;20072;-32
2022/01/02 14:49:10;;;;;;;9.57;3.40;;;;;;;;;;5023004;28;20029;-31
2022/01/02 14:51:36;;;;;;;12.13;2.67;;;;;;;;;;5022708;28;20895;-33
2022/01/02 14:54:02;;;;;;;10.18;3.05;;;;;;;;;;5022407;28;20037;-29
2022/01/02 14:56:27;;;;;;;6.25;2.80;;;;;;;;;;5023091;28;20103;-31
2022/01/02 14:58:53;;;;;;;5.30;2.95;;;;;;;;;;5022518;28;20518;-33
2022/01/02 15:01:20;;;;;;;14.88;3.03;;;;;;;;;;5022631;28;20381;-34
2022/01/02 15:03:46;;;;;;;4.78;2.80;;;;;;;;;;5022517;28;20496;-35